createdAt,value
2022-11-02T00:01:29.709Z,8.20
2022-11-02T00:03:58.003Z,8.18
2022-11-02T00:06:26.219Z,9.13
2022-11-02T00:08:54.523Z,7.93
2022-11-02T00:15:47.239Z,9.93
2022-11-02T00:18:16.534Z,8.43
2022-11-02T00:20:44.979Z,8.80
2022-11-02T00:23:14.050Z,10.30
2022-11-02T00:25:45.147Z,7.50
2022-11-02T00:28:14.385Z,7.63
2022-11-02T00:30:44.150Z,5.55
2022-11-02T00:33:12.330Z,6.93
2022-11-02T00:35:41.107Z,6.70
2022-11-02T00:38:09.487Z,8.73
2022-11-02T00:40:37.675Z,11.68
2022-11-02T00:43:06.693Z,12.35
2022-11-02T00:45:34.906Z,8.75
2022-11-02T00:48:05.110Z,13.73
2022-11-02T00:50:33.980Z,8.50
2022-11-02T00:53:02.196Z,10.02
2022-11-02T00:55:30.510Z,9.30
2022-11-02T00:57:58.967Z,10.30
2022-11-02T01:00:27.042Z,11.88
2022-11-02T01:02:55.245Z,12.35
2022-11-02T01:05:25.044Z,8.27
2022-11-02T01:07:54.273Z,9.32
2022-11-02T01:10:22.633Z,14.50
2022-11-02T01:12:51.007Z,16.65
2022-11-02T01:15:19.277Z,10.05
2022-11-02T01:17:47.525Z,12.85
2022-11-02T01:20:16.137Z,14.15
2022-11-02T01:22:45.639Z,13.73
2022-11-02T01:25:13.753Z,10.07
2022-11-02T01:27:42.152Z,16.00
2022-11-02T01:30:11.433Z,9.85
2022-11-02T01:32:39.579Z,10.13
2022-11-02T01:35:08.302Z,12.60
2022-11-02T01:37:36.475Z,13.10
2022-11-02T01:40:07.169Z,11.25
2022-11-02T01:42:35.445Z,11.80
2022-11-02T01:45:03.736Z,14.02
2022-11-02T01:47:37.915Z,10.52
2022-11-02T01:50:08.951Z,11.82
2022-11-02T01:52:38.738Z,12.05
2022-11-02T01:55:14.076Z,12.85
2022-11-02T01:57:44.872Z,15.82
2022-11-02T02:00:15.547Z,19.58
2022-11-02T02:02:50.473Z,16.73
2022-11-02T02:05:19.533Z,11.65
2022-11-02T02:07:48.680Z,12.50
2022-11-02T02:10:18.723Z,13.40
2022-11-02T02:12:47.656Z,16.48
2022-11-02T02:15:16.237Z,13.18
2022-11-02T02:17:49.521Z,15.10
2022-11-02T02:20:27.348Z,15.73
2022-11-02T02:23:24.247Z,14.23
2022-11-02T02:26:17.373Z,16.42
2022-11-02T02:28:52.560Z,13.55
2022-11-02T02:31:28.941Z,12.88
2022-11-02T02:34:10.628Z,16.27
2022-11-02T02:39:24.989Z,15.40
2022-11-02T02:41:58.728Z,15.55
2022-11-02T02:47:03.393Z,12.50
2022-11-02T02:49:36.538Z,13.43
2022-11-02T02:52:06.316Z,18.52
2022-11-02T02:54:39.961Z,16.08
2022-11-02T02:59:42.136Z,19.75
2022-11-02T03:02:15.432Z,13.53
2022-11-02T03:04:43.993Z,12.43
2022-11-02T03:07:15.997Z,12.45
2022-11-02T03:09:50.942Z,12.80
2022-11-02T03:12:26.992Z,10.77
2022-11-02T03:15:11.577Z,12.98
2022-11-02T03:17:48.309Z,19.05
2022-11-02T03:20:23.999Z,14.63
2022-11-02T03:23:00.528Z,14.70
2022-11-02T03:25:31.715Z,12.13
2022-11-02T03:28:09.117Z,13.10
2022-11-02T03:30:43.698Z,15.02
2022-11-02T03:33:18.568Z,15.65
2022-11-02T03:35:52.443Z,18.00
2022-11-02T03:38:23.798Z,15.65
2022-11-02T03:40:55.389Z,18.25
2022-11-02T03:43:25.170Z,13.20
2022-11-02T03:45:57.989Z,19.38
2022-11-02T03:48:31.448Z,16.27
2022-11-02T03:51:06.418Z,15.35
2022-11-02T03:53:43.269Z,17.25
2022-11-02T03:56:18.265Z,14.40
2022-11-02T03:58:46.427Z,16.13
2022-11-02T04:01:18.925Z,14.45
2022-11-02T04:03:48.482Z,16.13
2022-11-02T04:06:17.190Z,18.23
2022-11-02T04:08:47.905Z,17.48
2022-11-02T04:11:34.032Z,12.20
2022-11-02T04:14:19.834Z,13.15
2022-11-02T04:16:49.403Z,16.30
2022-11-02T04:19:28.515Z,14.38
2022-11-02T04:22:14.772Z,17.00
2022-11-02T04:25:00.766Z,15.35
2022-11-02T04:27:29.099Z,17.15
2022-11-02T04:29:57.299Z,14.82
2022-11-02T04:32:44.335Z,13.50
2022-11-02T04:35:12.723Z,17.50
2022-11-02T04:37:58.994Z,13.18
2022-11-02T04:40:27.404Z,14.43
2022-11-02T04:42:56.073Z,14.20
2022-11-02T04:45:24.284Z,11.23
2022-11-02T04:47:54.062Z,12.13
2022-11-02T04:50:22.200Z,17.52
2022-11-02T04:52:57.337Z,16.05
2022-11-02T04:55:25.918Z,13.70
2022-11-02T04:57:54.322Z,13.27
2022-11-02T05:00:23.532Z,12.82
2022-11-02T05:02:53.649Z,14.50
2022-11-02T05:05:21.887Z,10.48
2022-11-02T05:07:50.267Z,14.65
2022-11-02T05:10:18.567Z,17.35
2022-11-02T05:12:46.643Z,18.60
2022-11-02T05:15:15.104Z,13.55
2022-11-02T05:17:43.356Z,16.77
2022-11-02T05:20:13.089Z,16.23
2022-11-02T05:22:43.534Z,14.75
2022-11-02T05:25:12.542Z,17.25
2022-11-02T05:27:40.674Z,16.77
2022-11-02T05:30:09.717Z,17.58
2022-11-02T05:32:38.052Z,16.30
2022-11-02T05:35:07.124Z,16.27
2022-11-02T05:37:36.955Z,19.27
2022-11-02T05:40:05.877Z,18.02
2022-11-02T05:42:34.650Z,20.02
2022-11-02T05:45:03.055Z,18.83
2022-11-02T05:47:31.295Z,14.73
2022-11-02T05:49:59.473Z,19.38
2022-11-02T05:52:27.923Z,20.20
2022-11-02T05:54:57.440Z,18.02
2022-11-02T05:57:25.707Z,16.67
2022-11-02T05:59:54.246Z,23.20
2022-11-02T06:02:24.737Z,20.48
2022-11-02T06:04:54.087Z,21.45
2022-11-02T06:07:22.432Z,18.80
2022-11-02T06:09:50.505Z,20.27
2022-11-02T06:12:20.289Z,13.80
2022-11-02T06:14:48.398Z,16.90
2022-11-02T06:17:16.564Z,18.20
2022-11-02T06:19:44.955Z,20.27
2022-11-02T06:22:13.125Z,17.75
2022-11-02T06:24:41.268Z,18.75
2022-11-02T06:27:09.618Z,17.10
2022-11-02T06:29:39.172Z,20.45
2022-11-02T06:32:07.340Z,15.10
2022-11-02T06:34:35.626Z,21.02
2022-11-02T06:37:03.910Z,22.40
2022-11-02T06:39:32.119Z,20.13
2022-11-02T06:42:00.468Z,20.33
2022-11-02T06:44:28.729Z,25.23
2022-11-02T06:46:58.229Z,21.05
2022-11-02T06:49:26.613Z,22.38
2022-11-02T06:51:54.891Z,21.00
2022-11-02T06:54:23.087Z,17.90
2022-11-02T06:56:51.479Z,18.73
2022-11-02T06:59:19.607Z,23.83
2022-11-02T07:01:52.815Z,16.70
2022-11-02T07:04:22.910Z,24.48
2022-11-02T07:06:51.098Z,21.02
2022-11-02T07:09:19.338Z,19.67
2022-11-02T07:11:47.506Z,21.40
2022-11-02T07:14:15.866Z,19.42
2022-11-02T07:16:44.461Z,19.08
2022-11-02T07:19:12.624Z,18.48
2022-11-02T07:21:43.729Z,25.33
2022-11-02T07:24:14.817Z,21.65
2022-11-02T07:26:43.148Z,21.42
2022-11-02T07:29:11.269Z,19.10
2022-11-02T07:31:39.537Z,19.92
2022-11-02T07:34:08.475Z,18.98
2022-11-02T07:36:38.826Z,16.75
2022-11-02T07:39:08.524Z,19.52
2022-11-02T07:41:36.938Z,26.88
2022-11-02T07:44:05.326Z,18.42
2022-11-02T07:46:33.678Z,20.95
2022-11-02T07:49:01.916Z,22.05
2022-11-02T07:51:30.521Z,17.67
2022-11-02T07:53:59.697Z,20.25
2022-11-02T07:56:29.472Z,18.67
2022-11-02T07:58:57.665Z,18.63
2022-11-02T08:01:26.039Z,22.20
2022-11-02T08:03:54.888Z,23.58
2022-11-02T08:06:23.168Z,21.17
2022-11-02T08:08:51.442Z,21.98
2022-11-02T08:11:19.650Z,20.08
2022-11-02T08:13:49.272Z,20.25
2022-11-02T08:16:17.567Z,18.48
2022-11-02T08:18:45.800Z,15.88
2022-11-02T08:21:14.032Z,20.40
2022-11-02T08:23:42.449Z,20.90
2022-11-02T08:26:10.621Z,20.48
2022-11-02T08:28:40.360Z,19.70
2022-11-02T08:31:15.916Z,22.83
2022-11-02T08:33:44.427Z,19.70
2022-11-02T08:36:13.589Z,19.83
2022-11-02T08:38:42.658Z,24.83
2022-11-02T08:41:10.834Z,26.05
2022-11-02T08:43:39.218Z,20.15
2022-11-02T08:46:16.483Z,21.38
2022-11-02T08:48:46.953Z,18.20
2022-11-02T08:51:15.210Z,21.50
2022-11-02T08:53:48.520Z,22.35
2022-11-02T08:56:18.655Z,18.73
2022-11-02T08:58:46.767Z,18.70
2022-11-02T09:01:15.182Z,18.75
2022-11-02T09:03:43.622Z,16.52
2022-11-02T09:06:13.289Z,17.15
2022-11-02T09:08:41.578Z,16.38
2022-11-02T09:11:09.745Z,16.98
2022-11-02T09:13:39.573Z,15.13
2022-11-02T09:16:08.448Z,17.70
2022-11-02T09:18:36.547Z,15.27
2022-11-02T09:21:05.763Z,11.82
2022-11-02T09:23:35.329Z,13.95
2022-11-02T09:26:03.485Z,17.88
2022-11-02T09:28:31.673Z,16.63
2022-11-02T09:30:59.850Z,15.70
2022-11-02T09:33:29.801Z,16.08
2022-11-02T09:36:03.954Z,17.02
2022-11-02T09:38:32.267Z,15.35
2022-11-02T09:41:12.614Z,13.95
2022-11-02T09:43:54.293Z,17.65
2022-11-02T09:46:26.424Z,14.40
2022-11-02T09:48:57.574Z,14.40
2022-11-02T09:51:29.760Z,16.75
2022-11-02T09:54:06.747Z,16.08
2022-11-02T09:56:37.541Z,16.20
2022-11-02T09:59:14.742Z,18.80
2022-11-02T10:02:05.958Z,21.27
2022-11-02T10:05:01.293Z,14.60
2022-11-02T10:07:55.655Z,17.25
2022-11-02T10:10:29.276Z,19.27
2022-11-02T10:15:38.953Z,15.75
2022-11-02T10:18:14.716Z,13.55
2022-11-02T10:20:47.099Z,15.80
2022-11-02T10:23:24.220Z,14.88
2022-11-02T10:25:53.670Z,17.30
2022-11-02T10:28:28.005Z,15.30
2022-11-02T10:30:56.538Z,20.40
2022-11-02T10:33:27.816Z,19.08
2022-11-02T10:36:19.339Z,16.17
2022-11-02T10:39:02.761Z,16.58
2022-11-02T10:41:55.859Z,19.67
2022-11-02T10:44:39.227Z,18.75
2022-11-02T10:47:16.341Z,15.95
2022-11-02T10:50:15.309Z,15.35
2022-11-02T10:52:45.815Z,14.15
2022-11-02T10:55:25.696Z,19.13
2022-11-02T10:57:57.425Z,18.60
2022-11-02T11:00:30.543Z,14.65
2022-11-02T11:03:10.581Z,16.23
2022-11-02T11:05:53.225Z,20.30
2022-11-02T11:08:35.558Z,14.65
2022-11-02T11:11:16.947Z,13.80
2022-11-02T11:16:46.253Z,15.30
2022-11-02T11:19:40.426Z,15.02
2022-11-02T11:22:26.653Z,15.38
2022-11-02T11:24:55.157Z,17.65
2022-11-02T11:27:24.146Z,17.30
2022-11-02T11:29:57.282Z,15.50
2022-11-02T11:32:30.526Z,16.77
2022-11-02T11:37:29.062Z,16.55
2022-11-02T11:40:01.445Z,11.57
2022-11-02T11:42:33.311Z,14.32
2022-11-02T11:45:05.148Z,13.80
2022-11-02T11:47:37.660Z,13.38
2022-11-02T11:50:15.559Z,17.98
2022-11-02T11:53:08.341Z,13.90
2022-11-02T11:55:36.670Z,15.82
2022-11-02T11:58:14.684Z,11.73
2022-11-02T12:00:43.393Z,12.38
2022-11-02T12:03:14.340Z,12.05
2022-11-02T12:05:55.483Z,14.68
2022-11-02T12:08:45.357Z,15.93
2022-11-02T12:11:27.807Z,9.20
2022-11-02T12:14:11.834Z,15.02
2022-11-02T12:17:07.693Z,11.13
2022-11-02T12:19:54.130Z,11.93
2022-11-02T12:22:30.715Z,13.13
2022-11-02T12:25:17.622Z,13.57
2022-11-02T12:27:53.866Z,11.73
2022-11-02T12:30:23.003Z,13.40
2022-11-02T12:33:07.335Z,11.00
2022-11-02T12:36:01.055Z,12.13
2022-11-02T12:39:08.232Z,13.88
2022-11-02T12:41:52.822Z,12.93
2022-11-02T12:44:57.072Z,15.00
2022-11-02T12:47:48.464Z,12.38
2022-11-02T12:50:26.080Z,15.00
2022-11-02T12:53:08.671Z,14.73
2022-11-02T12:55:43.137Z,11.43
2022-11-02T12:58:17.293Z,16.15
2022-11-02T13:00:48.729Z,12.93
2022-11-02T13:03:27.566Z,11.48
2022-11-02T13:06:04.175Z,13.82
2022-11-02T13:08:39.837Z,9.93
2022-11-02T13:11:14.063Z,11.18
2022-11-02T13:13:47.068Z,10.45
2022-11-02T13:16:18.749Z,12.95
2022-11-02T13:18:53.232Z,13.90
2022-11-02T13:21:31.089Z,14.40
2022-11-02T13:24:01.767Z,15.93
2022-11-02T13:26:34.246Z,12.27
2022-11-02T13:29:08.893Z,14.10
2022-11-02T13:31:41.578Z,12.73
2022-11-02T13:34:14.099Z,11.95
2022-11-02T13:36:43.326Z,13.75
2022-11-02T13:39:18.731Z,13.35
2022-11-02T13:42:19.546Z,10.90
2022-11-02T13:45:07.487Z,14.18
2022-11-02T13:48:15.725Z,11.05
2022-11-02T13:50:48.115Z,13.32
2022-11-02T13:53:21.002Z,14.82
2022-11-02T13:55:55.799Z,10.63
2022-11-02T13:58:26.672Z,11.63
2022-11-02T14:00:59.940Z,11.63
2022-11-02T14:03:32.071Z,14.05
2022-11-02T14:06:02.665Z,12.02
2022-11-02T14:08:36.272Z,12.00
2022-11-02T14:14:19.571Z,14.10
2022-11-02T14:17:12.297Z,12.95
2022-11-02T14:19:56.638Z,11.52
2022-11-02T14:22:25.369Z,13.82
2022-11-02T14:25:12.176Z,12.45
2022-11-02T14:27:42.014Z,10.07
2022-11-02T14:30:48.775Z,12.70
2022-11-02T14:33:36.376Z,10.32
2022-11-02T14:36:09.426Z,18.83
2022-11-02T14:38:49.875Z,13.88
2022-11-02T14:41:42.912Z,10.13
2022-11-02T14:44:40.833Z,10.80
2022-11-02T14:47:11.036Z,11.07
2022-11-02T14:49:46.808Z,10.32
2022-11-02T14:52:25.153Z,12.30
2022-11-02T14:54:59.987Z,12.68
2022-11-02T14:57:32.396Z,9.88
2022-11-02T15:00:05.948Z,8.73
2022-11-02T15:02:40.347Z,8.48
2022-11-02T15:05:24.634Z,11.38
2022-11-02T15:07:58.227Z,11.13
2022-11-02T15:10:42.747Z,13.00
2022-11-02T15:13:47.643Z,12.27
2022-11-02T15:16:25.424Z,10.57
2022-11-02T15:18:55.650Z,11.18
2022-11-02T15:21:28.479Z,12.35
2022-11-02T15:24:17.033Z,12.43
2022-11-02T15:26:57.516Z,9.95
2022-11-02T15:29:37.053Z,9.73
2022-11-02T15:32:17.065Z,11.50
2022-11-02T15:34:51.734Z,10.57
2022-11-02T15:37:23.669Z,13.70
2022-11-02T15:39:53.114Z,13.85
2022-11-02T15:42:31.735Z,12.93
2022-11-02T15:45:33.895Z,11.48
2022-11-02T15:48:12.607Z,11.57
2022-11-02T15:50:48.884Z,13.93
2022-11-02T15:53:40.644Z,13.73
2022-11-02T15:56:26.641Z,11.95
2022-11-02T15:59:12.917Z,12.05
2022-11-02T16:01:41.424Z,15.05
2022-11-02T16:04:21.082Z,11.32
2022-11-02T16:06:50.425Z,14.73
2022-11-02T16:09:33.302Z,11.10
2022-11-02T16:12:11.482Z,10.50
2022-11-02T16:14:40.764Z,17.42
2022-11-02T16:17:20.645Z,14.80
2022-11-02T16:19:50.442Z,13.35
2022-11-02T16:22:25.933Z,13.45
2022-11-02T16:24:55.295Z,15.52
2022-11-02T16:27:24.165Z,14.60
2022-11-02T16:29:53.070Z,11.57
2022-11-02T16:32:21.634Z,13.23
2022-11-02T16:34:51.415Z,14.40
2022-11-02T16:37:21.337Z,15.20
2022-11-02T16:39:49.613Z,15.43
2022-11-02T16:42:20.186Z,12.90
2022-11-02T16:44:57.773Z,12.48
2022-11-02T16:47:39.763Z,12.95
2022-11-02T16:50:22.418Z,9.52
2022-11-02T16:52:58.646Z,13.75
2022-11-02T16:55:41.961Z,10.43
2022-11-02T16:58:17.759Z,14.98
2022-11-02T17:00:58.071Z,15.35
2022-11-02T17:03:30.625Z,12.18
2022-11-02T17:06:03.344Z,12.88
2022-11-02T17:08:33.728Z,16.45
2022-11-02T17:11:03.903Z,11.95
2022-11-02T17:13:33.619Z,16.38
2022-11-02T17:16:07.208Z,14.45
2022-11-02T17:18:36.566Z,11.77
2022-11-02T17:21:28.639Z,15.68
2022-11-02T17:23:58.227Z,13.98
2022-11-02T17:26:38.048Z,13.30
2022-11-02T17:29:32.357Z,13.57
2022-11-02T17:32:01.712Z,14.27
2022-11-02T17:34:31.603Z,14.82
2022-11-02T17:37:01.599Z,14.02
2022-11-02T17:39:29.840Z,15.50
2022-11-02T17:42:16.514Z,15.27
2022-11-02T17:44:45.469Z,16.98
2022-11-02T17:47:15.041Z,13.50
2022-11-02T17:49:43.292Z,13.52
2022-11-02T17:52:16.406Z,15.45
2022-11-02T17:54:44.598Z,14.85
2022-11-02T17:57:14.287Z,17.00
2022-11-02T17:59:42.567Z,17.25
2022-11-02T18:02:14.605Z,16.15
2022-11-02T18:07:13.605Z,15.98
2022-11-02T18:09:41.896Z,22.35
2022-11-02T18:12:14.536Z,21.02
2022-11-02T18:14:43.115Z,20.63
2022-11-02T18:17:11.529Z,17.85
2022-11-02T18:19:39.587Z,21.92
2022-11-02T18:22:08.124Z,15.30
2022-11-02T18:24:37.660Z,17.08
2022-11-02T18:27:05.841Z,14.32
2022-11-02T18:29:34.627Z,16.25
2022-11-02T18:32:02.775Z,21.65
2022-11-02T18:34:31.132Z,14.95
2022-11-02T18:36:59.315Z,16.13
2022-11-02T18:39:27.516Z,17.90
2022-11-02T18:41:57.239Z,18.73
2022-11-02T18:44:25.291Z,16.55
2022-11-02T18:46:53.524Z,17.80
2022-11-02T18:49:21.864Z,20.27
2022-11-02T18:51:50.090Z,15.80
2022-11-02T18:54:18.326Z,19.05
2022-11-02T18:56:47.051Z,23.13
2022-11-02T18:59:16.518Z,13.85
2022-11-02T19:01:44.781Z,17.25
2022-11-02T19:04:17.202Z,17.50
2022-11-02T19:07:03.549Z,16.40
2022-11-02T19:09:33.523Z,16.08
2022-11-02T19:12:07.798Z,18.95
2022-11-02T19:14:40.293Z,15.77
2022-11-02T19:17:09.942Z,18.35
2022-11-02T19:19:41.027Z,18.50
2022-11-02T19:22:11.327Z,16.60
2022-11-02T19:24:39.846Z,18.85
2022-11-02T19:27:08.131Z,17.55
2022-11-02T19:29:37.713Z,18.25
2022-11-02T19:32:06.196Z,16.13
2022-11-02T19:34:36.737Z,17.38
2022-11-02T19:37:05.275Z,18.52
2022-11-02T19:39:33.673Z,20.50
2022-11-02T19:42:03.280Z,17.40
2022-11-02T19:44:31.760Z,15.30
2022-11-02T19:47:01.328Z,15.90
2022-11-02T19:49:29.458Z,14.75
2022-11-02T19:51:57.612Z,19.23
2022-11-02T19:54:25.812Z,20.00
2022-11-02T19:56:53.992Z,15.25
2022-11-02T19:59:22.599Z,18.77
2022-11-02T20:01:52.056Z,15.88
2022-11-02T20:04:21.856Z,18.48
2022-11-02T20:06:50.371Z,19.45
2022-11-02T20:09:20.692Z,17.30
2022-11-02T20:11:49.600Z,20.92
2022-11-02T20:14:18.885Z,15.85
2022-11-02T20:16:58.393Z,17.77
2022-11-02T20:19:28.547Z,14.85
2022-11-02T20:21:57.314Z,19.23
2022-11-02T20:24:25.552Z,19.48
2022-11-02T20:26:57.271Z,12.02
2022-11-02T20:29:25.647Z,14.50
2022-11-02T20:31:53.970Z,13.85
2022-11-02T20:34:22.123Z,18.75
2022-11-02T20:36:51.851Z,17.00
2022-11-02T20:39:20.077Z,17.17
2022-11-02T20:41:48.240Z,16.27
2022-11-02T20:44:20.841Z,13.88
2022-11-02T20:46:53.052Z,18.60
2022-11-02T20:49:44.285Z,18.10
2022-11-02T20:52:12.339Z,17.15
2022-11-02T20:54:41.681Z,17.90
2022-11-02T20:57:09.862Z,15.65
2022-11-02T20:59:38.035Z,16.33
2022-11-02T21:02:06.454Z,19.90
2022-11-02T21:04:34.579Z,14.60
2022-11-02T21:07:02.871Z,18.42
2022-11-02T21:09:32.421Z,12.70
2022-11-02T21:12:17.873Z,14.82
2022-11-02T21:14:46.117Z,13.98
2022-11-02T21:17:14.218Z,14.98
2022-11-02T21:19:42.458Z,17.58
2022-11-02T21:22:10.855Z,18.75
2022-11-02T21:24:40.382Z,12.95
2022-11-02T21:27:08.481Z,16.52
2022-11-02T21:29:36.660Z,13.13
2022-11-02T21:32:05.029Z,14.90
2022-11-02T21:34:33.144Z,16.02
2022-11-02T21:37:03.115Z,16.20
2022-11-02T21:39:31.191Z,13.93
2022-11-02T21:42:00.973Z,15.05
2022-11-02T21:44:29.276Z,11.57
2022-11-02T21:46:57.810Z,15.25
2022-11-02T21:49:25.882Z,18.23
2022-11-02T21:51:54.209Z,16.08
2022-11-02T21:54:22.357Z,15.95
2022-11-02T21:56:50.524Z,15.38
2022-11-02T21:59:20.296Z,16.02
2022-11-02T22:01:50.198Z,17.05
2022-11-02T22:04:21.715Z,18.02
2022-11-02T22:06:50.884Z,14.38
2022-11-02T22:09:19.710Z,14.57
2022-11-02T22:11:48.355Z,18.48
2022-11-02T22:14:16.535Z,16.90
2022-11-02T22:16:46.110Z,15.25
2022-11-02T22:19:15.603Z,13.63
2022-11-02T22:21:45.110Z,18.35
2022-11-02T22:24:13.533Z,15.07
2022-11-02T22:26:42.253Z,12.98
2022-11-02T22:29:11.044Z,16.20
2022-11-02T22:31:40.938Z,15.60
2022-11-02T22:34:12.076Z,14.13
2022-11-02T22:36:41.778Z,18.08
2022-11-02T22:39:12.036Z,19.27
2022-11-02T22:41:42.881Z,15.70
2022-11-02T22:44:12.452Z,12.48
2022-11-02T22:46:42.352Z,13.43
2022-11-02T22:49:14.060Z,19.08
2022-11-02T22:51:45.167Z,14.85
2022-11-02T22:54:15.688Z,14.15
2022-11-02T22:56:44.752Z,17.48
2022-11-02T22:59:13.508Z,11.95
2022-11-02T23:01:42.302Z,13.73
2022-11-02T23:04:13.512Z,13.73
2022-11-02T23:06:41.624Z,13.05
2022-11-02T23:09:13.063Z,12.13
2022-11-02T23:11:40.365Z,12.95
2022-11-02T23:14:10.625Z,12.88
2022-11-02T23:16:40.533Z,14.18
2022-11-02T23:19:29.588Z,14.57
2022-11-02T23:22:33.082Z,15.50
2022-11-02T23:25:15.366Z,12.93
2022-11-02T23:27:58.775Z,17.58
2022-11-02T23:30:46.276Z,16.13
2022-11-02T23:33:14.764Z,14.93
2022-11-02T23:36:00.601Z,14.00
2022-11-02T23:38:50.484Z,16.35
2022-11-02T23:41:20.237Z,12.98
2022-11-02T23:43:48.896Z,16.65
2022-11-02T23:46:17.639Z,15.27
2022-11-02T23:48:48.437Z,14.13
2022-11-02T23:54:23.919Z,11.70
2022-11-02T23:56:52.275Z,10.48
2022-11-02T23:59:20.477Z,18.63
